createdAt,value
2019-06-08T00:00:20.670Z,98.20
2019-06-08T00:02:49.526Z,98.20
2019-06-08T00:05:18.809Z,98.40
2019-06-08T00:07:47.709Z,98.30
2019-06-08T00:10:21.117Z,98.50
2019-06-08T00:12:47.360Z,97.80
2019-06-08T00:15:16.179Z,98.40
2019-06-08T00:17:44.648Z,98.80
2019-06-08T00:20:13.712Z,98.70
2019-06-08T00:22:42.175Z,98.10
2019-06-08T00:25:11.101Z,98.90
2019-06-08T00:27:39.488Z,99.00
2019-06-08T00:30:08.329Z,99.20
2019-06-08T00:32:36.731Z,99.30
2019-06-08T00:35:07.067Z,99.60
2019-06-08T00:37:35.448Z,99.80
2019-06-08T00:40:05.800Z,99.90
2019-06-08T00:42:34.189Z,99.90
2019-06-08T00:45:02.602Z,99.90
2019-06-08T00:47:47.150Z,99.90
2019-06-08T00:50:01.116Z,99.90
2019-06-08T00:52:29.508Z,99.90
2019-06-08T00:54:57.913Z,99.90
2019-06-08T00:57:26.584Z,99.90
2019-06-08T00:59:54.971Z,99.90
2019-06-08T01:02:24.490Z,99.90
2019-06-08T01:04:53.143Z,99.90
2019-06-08T01:07:22.061Z,99.90
2019-06-08T01:09:50.592Z,99.90
2019-06-08T01:12:18.987Z,99.90
2019-06-08T01:14:47.365Z,99.90
2019-06-08T01:17:15.767Z,99.90
2019-06-08T01:19:44.172Z,99.90
2019-06-08T01:22:12.581Z,99.90
2019-06-08T01:24:41.216Z,99.90
2019-06-08T01:27:09.620Z,99.90
2019-06-08T01:29:38.008Z,99.90
2019-06-08T01:32:06.405Z,99.90
2019-06-08T01:34:34.802Z,99.90
2019-06-08T01:37:03.527Z,99.90
2019-06-08T01:39:32.450Z,99.90
2019-06-08T01:42:01.017Z,99.90
2019-06-08T01:44:30.043Z,99.90
2019-06-08T01:46:58.568Z,99.90
2019-06-08T01:49:28.328Z,99.90
2019-06-08T01:51:56.819Z,99.90
2019-06-08T01:54:25.225Z,99.90
2019-06-08T01:56:53.611Z,99.90
2019-06-08T01:59:23.262Z,99.90
2019-06-08T02:01:52.038Z,99.90
2019-06-08T02:04:20.420Z,99.80
2019-06-08T02:06:48.823Z,99.80
2019-06-08T02:09:17.204Z,99.60
2019-06-08T02:11:45.979Z,99.30
2019-06-08T02:14:14.358Z,99.20
2019-06-08T02:16:42.758Z,98.80
2019-06-08T02:19:11.146Z,98.40
2019-06-08T02:21:39.604Z,98.30
2019-06-08T02:24:07.993Z,98.30
2019-06-08T02:26:36.448Z,97.90
2019-06-08T02:29:05.444Z,98.00
2019-06-08T02:31:35.052Z,97.80
2019-06-08T02:34:05.455Z,97.50
2019-06-08T02:36:35.893Z,97.60
2019-06-08T02:39:06.203Z,97.20
2019-06-08T02:41:35.315Z,97.20
2019-06-08T02:44:03.972Z,97.20
2019-06-08T02:46:33.262Z,97.30
2019-06-08T02:49:04.565Z,96.40
2019-06-08T02:51:34.344Z,96.10
2019-06-08T02:54:03.118Z,96.30
2019-06-08T02:56:34.139Z,96.20
2019-06-08T02:59:06.215Z,95.70
2019-06-08T03:01:36.038Z,96.20
2019-06-08T03:04:05.165Z,95.80
2019-06-08T03:06:36.871Z,95.00
2019-06-08T03:09:07.247Z,95.10
2019-06-08T03:11:36.825Z,95.10
2019-06-08T03:14:05.730Z,95.60
2019-06-08T03:16:35.763Z,95.30
2019-06-08T03:19:21.077Z,95.40
2019-06-08T03:21:36.169Z,95.70
2019-06-08T03:24:04.824Z,95.30
2019-06-08T03:26:34.245Z,95.50
2019-06-08T03:29:02.789Z,95.70
2019-06-08T03:31:34.414Z,95.60
2019-06-08T03:34:01.305Z,95.70
2019-06-08T03:36:29.689Z,95.60
2019-06-08T03:38:58.167Z,95.80
2019-06-08T03:41:26.549Z,95.90
2019-06-08T03:43:54.965Z,95.90
2019-06-08T03:46:23.361Z,95.90
2019-06-08T03:48:51.749Z,96.00
2019-06-08T03:51:20.154Z,95.90
2019-06-08T03:53:48.543Z,96.00
2019-06-08T03:56:18.466Z,96.10
2019-06-08T03:58:48.026Z,96.10
2019-06-08T04:01:16.906Z,96.10
2019-06-08T04:03:46.194Z,96.80
2019-06-08T04:06:14.844Z,96.70
2019-06-08T04:08:45.362Z,96.60
2019-06-08T04:11:13.336Z,96.90
2019-06-08T04:13:44.649Z,96.90
2019-06-08T04:16:13.221Z,96.90
2019-06-08T04:18:42.135Z,97.10
2019-06-08T04:21:10.685Z,97.10
2019-06-08T04:23:40.435Z,97.30
2019-06-08T04:26:09.196Z,97.20
2019-06-08T04:28:38.350Z,97.40
2019-06-08T04:31:06.863Z,97.10
2019-06-08T04:33:35.275Z,97.10
2019-06-08T04:36:03.803Z,97.20
2019-06-08T04:38:32.531Z,97.20
2019-06-08T04:41:00.962Z,97.40
2019-06-08T04:43:29.320Z,97.60
2019-06-08T04:45:57.713Z,97.20
2019-06-08T04:48:26.109Z,97.40
2019-06-08T04:50:54.568Z,97.50
2019-06-08T04:53:22.954Z,97.30
2019-06-08T04:55:51.361Z,97.20
2019-06-08T04:58:19.786Z,97.30
2019-06-08T05:00:50.722Z,97.00
2019-06-08T05:03:18.400Z,96.90
2019-06-08T05:05:47.654Z,96.70
2019-06-08T05:08:16.680Z,96.50
2019-06-08T05:10:45.366Z,96.30
2019-06-08T05:13:15.491Z,96.00
2019-06-08T05:15:45.329Z,95.70
2019-06-08T05:18:13.955Z,95.30
2019-06-08T05:20:45.395Z,94.90
2019-06-08T05:23:12.463Z,94.80
2019-06-08T05:25:41.189Z,94.70
2019-06-08T05:28:09.756Z,94.80
2019-06-08T05:30:39.311Z,94.70
2019-06-08T05:33:07.829Z,94.60
2019-06-08T05:35:36.232Z,94.40
2019-06-08T05:38:04.712Z,93.90
2019-06-08T05:40:33.100Z,93.90
2019-06-08T05:43:01.480Z,93.80
2019-06-08T05:45:29.873Z,93.70
2019-06-08T05:47:58.255Z,93.20
2019-06-08T05:50:26.657Z,93.30
2019-06-08T05:52:55.045Z,93.00
2019-06-08T05:55:23.443Z,92.80
2019-06-08T05:57:51.862Z,92.90
2019-06-08T06:00:20.581Z,92.70
2019-06-08T06:02:48.985Z,92.70
2019-06-08T06:05:17.449Z,92.60
2019-06-08T06:07:46.738Z,92.50
2019-06-08T06:10:15.555Z,92.40
2019-06-08T06:12:45.260Z,92.10
2019-06-08T06:15:14.472Z,92.20
2019-06-08T06:17:43.983Z,92.30
2019-06-08T06:20:14.956Z,92.20
2019-06-08T06:22:43.997Z,92.20
2019-06-08T06:25:14.299Z,92.10
2019-06-08T06:27:43.444Z,92.30
2019-06-08T06:30:12.253Z,92.20
2019-06-08T06:32:41.768Z,92.20
2019-06-08T06:35:10.653Z,92.00
2019-06-08T06:37:39.152Z,92.40
2019-06-08T06:40:08.481Z,91.90
2019-06-08T06:42:36.887Z,91.80
2019-06-08T06:45:07.145Z,91.60
2019-06-08T06:47:35.538Z,91.50
2019-06-08T06:50:06.065Z,92.00
2019-06-08T06:52:33.707Z,91.30
2019-06-08T06:55:02.079Z,91.30
2019-06-08T06:57:30.591Z,91.10
2019-06-08T06:59:59.056Z,91.00
2019-06-08T07:02:27.860Z,90.80
2019-06-08T07:04:56.556Z,90.80
2019-06-08T07:07:24.953Z,90.70
2019-06-08T07:09:54.758Z,90.40
2019-06-08T07:12:23.744Z,90.20
2019-06-08T07:14:53.259Z,90.20
2019-06-08T07:17:21.708Z,90.20
2019-06-08T07:19:50.439Z,90.00
2019-06-08T07:22:18.881Z,89.60
2019-06-08T07:24:48.182Z,89.50
2019-06-08T07:27:16.639Z,89.20
2019-06-08T07:29:47.082Z,89.00
2019-06-08T07:32:15.402Z,87.80
2019-06-08T07:34:43.797Z,87.80
2019-06-08T07:37:12.189Z,87.80
2019-06-08T07:39:40.568Z,87.50
2019-06-08T07:42:08.955Z,87.20
2019-06-08T07:44:37.709Z,87.00
2019-06-08T07:47:06.093Z,86.80
2019-06-08T07:49:34.482Z,85.70
2019-06-08T07:52:10.264Z,85.60
2019-06-08T07:54:33.309Z,84.20
2019-06-08T07:57:01.671Z,84.60
2019-06-08T07:59:30.192Z,84.70
2019-06-08T08:01:58.636Z,84.30
2019-06-08T08:04:27.087Z,83.80
2019-06-08T08:06:56.741Z,83.60
2019-06-08T08:09:25.492Z,83.10
2019-06-08T08:11:55.198Z,82.50
2019-06-08T08:14:23.798Z,82.50
2019-06-08T08:16:52.872Z,81.40
2019-06-08T08:19:21.414Z,82.10
2019-06-08T08:21:51.811Z,81.30
2019-06-08T08:24:19.928Z,81.80
2019-06-08T08:26:50.870Z,80.80
2019-06-08T08:29:18.533Z,80.80
2019-06-08T08:31:47.963Z,80.40
2019-06-08T08:34:18.257Z,79.30
2019-06-08T08:36:48.187Z,79.10
2019-06-08T08:39:17.754Z,79.10
2019-06-08T08:41:49.946Z,78.20
2019-06-08T08:44:17.591Z,79.50
2019-06-08T08:46:48.641Z,78.80
2019-06-08T08:49:18.254Z,78.50
2019-06-08T08:51:47.714Z,77.70
2019-06-08T08:54:18.340Z,77.20
2019-06-08T08:56:50.387Z,78.30
2019-06-08T08:59:17.784Z,77.30
2019-06-08T09:01:48.272Z,77.70
2019-06-08T09:04:18.538Z,77.40
2019-06-08T09:06:48.343Z,77.00
2019-06-08T09:09:18.794Z,77.50
2019-06-08T09:11:48.392Z,77.80
2019-06-08T09:14:18.396Z,74.80
2019-06-08T09:16:48.173Z,77.60
2019-06-08T09:19:20.632Z,76.00
2019-06-08T09:21:48.200Z,74.80
2019-06-08T09:24:18.631Z,72.70
2019-06-08T09:26:47.724Z,73.50
2019-06-08T09:29:18.764Z,74.60
2019-06-08T09:31:48.877Z,73.10
2019-06-08T09:34:19.259Z,72.50
2019-06-08T09:36:47.898Z,72.40
2019-06-08T09:39:18.640Z,72.30
2019-06-08T09:41:49.961Z,72.70
2019-06-08T09:44:18.766Z,70.10
2019-06-08T09:46:48.167Z,70.60
2019-06-08T09:49:18.807Z,68.90
2019-06-08T09:51:48.662Z,69.10
2019-06-08T09:54:18.300Z,68.70
2019-06-08T09:56:47.825Z,68.10
2019-06-08T09:59:18.626Z,68.50
2019-06-08T10:01:46.621Z,67.40
2019-06-08T10:04:15.044Z,69.10
2019-06-08T10:06:43.475Z,67.20
2019-06-08T10:09:12.217Z,69.20
2019-06-08T10:11:40.608Z,66.40
2019-06-08T10:14:12.058Z,67.60
2019-06-08T10:16:39.203Z,64.60
2019-06-08T10:19:10.218Z,67.00
2019-06-08T10:21:38.819Z,65.50
2019-06-08T10:24:09.492Z,65.60
2019-06-08T10:26:38.268Z,65.40
2019-06-08T10:29:10.143Z,64.30
2019-06-08T10:31:43.054Z,64.40
2019-06-08T10:34:10.833Z,65.00
2019-06-08T10:36:38.337Z,65.30
2019-06-08T10:39:11.310Z,63.60
2019-06-08T10:41:38.931Z,64.70
2019-06-08T10:44:13.976Z,62.20
2019-06-08T10:46:40.644Z,62.90
2019-06-08T10:49:13.224Z,63.90
2019-06-08T10:51:40.904Z,63.70
2019-06-08T10:54:11.029Z,62.90
2019-06-08T10:56:39.122Z,64.10
2019-06-08T10:59:10.513Z,63.30
2019-06-08T11:01:38.586Z,59.20
2019-06-08T11:04:07.623Z,63.90
2019-06-08T11:06:40.127Z,60.60
2019-06-08T11:09:12.686Z,60.50
2019-06-08T11:11:38.568Z,62.60
2019-06-08T11:14:10.253Z,61.50
2019-06-08T11:16:38.497Z,60.90
2019-06-08T11:19:11.395Z,62.30
2019-06-08T11:21:38.844Z,62.80
2019-06-08T11:24:19.458Z,65.30
2019-06-08T11:26:39.997Z,62.80
2019-06-08T11:29:11.889Z,64.30
2019-06-08T11:31:39.200Z,64.40
2019-06-08T11:34:08.698Z,63.70
2019-06-08T11:36:39.448Z,64.90
2019-06-08T11:39:10.948Z,64.20
2019-06-08T11:41:37.631Z,63.50
2019-06-08T11:44:08.973Z,60.50
2019-06-08T11:46:38.467Z,59.90
2019-06-08T11:49:13.381Z,59.20
2019-06-08T11:51:39.456Z,59.40
2019-06-08T11:54:24.898Z,61.50
2019-06-08T11:56:40.365Z,61.70
2019-06-08T11:59:11.514Z,61.20
2019-06-08T12:01:38.257Z,60.00
2019-06-08T12:04:07.743Z,60.00
2019-06-08T12:06:37.713Z,58.90
2019-06-08T12:09:10.473Z,59.80
2019-06-08T12:11:38.284Z,60.50
2019-06-08T12:14:09.249Z,61.80
2019-06-08T12:16:37.806Z,59.00
2019-06-08T12:19:09.960Z,61.60
2019-06-08T12:21:36.456Z,59.90
2019-06-08T12:24:06.165Z,60.70
2019-06-08T12:26:34.813Z,61.70
2019-06-08T12:29:03.229Z,59.20
2019-06-08T12:31:31.608Z,60.10
2019-06-08T12:34:00.096Z,61.20
2019-06-08T12:36:30.620Z,60.00
2019-06-08T12:38:58.844Z,61.80
2019-06-08T12:41:28.866Z,58.30
2019-06-08T12:43:58.038Z,59.50
2019-06-08T12:46:28.008Z,57.00
2019-06-08T12:48:58.249Z,58.60
2019-06-08T12:51:28.087Z,58.80
2019-06-08T12:53:59.993Z,57.10
2019-06-08T12:56:28.606Z,55.70
2019-06-08T12:58:57.880Z,56.90
2019-06-08T13:01:28.166Z,57.40
2019-06-08T13:03:58.094Z,58.40
2019-06-08T13:06:28.265Z,56.20
2019-06-08T13:08:57.785Z,59.60
2019-06-08T13:11:28.217Z,56.90
2019-06-08T13:13:56.812Z,57.90
2019-06-08T13:16:25.279Z,57.60
2019-06-08T13:18:53.697Z,55.30
2019-06-08T13:21:34.220Z,54.40
2019-06-08T13:23:52.213Z,56.20
2019-06-08T13:26:27.734Z,57.30
2019-06-08T13:28:52.083Z,56.70
2019-06-08T13:31:24.154Z,56.20
2019-06-08T13:33:50.604Z,55.80
2019-06-08T13:36:25.752Z,54.50
2019-06-08T13:38:49.375Z,54.30
2019-06-08T13:41:23.654Z,55.80
2019-06-08T13:43:47.963Z,56.10
2019-06-08T13:46:18.674Z,59.20
2019-06-08T13:48:48.220Z,57.40
2019-06-08T13:51:19.918Z,53.70
2019-06-08T13:53:47.841Z,59.40
2019-06-08T13:56:18.946Z,55.50
2019-06-08T13:58:48.446Z,57.40
2019-06-08T14:01:17.499Z,54.00
2019-06-08T14:03:49.801Z,57.60
2019-06-08T14:06:19.077Z,53.50
2019-06-08T14:08:47.883Z,56.20
2019-06-08T14:11:19.637Z,54.90
2019-06-08T14:13:48.052Z,54.50
2019-06-08T14:16:20.178Z,52.20
2019-06-08T14:18:48.620Z,54.10
2019-06-08T14:21:21.447Z,53.60
2019-06-08T14:23:48.437Z,55.10
2019-06-08T14:26:17.609Z,53.70
2019-06-08T14:28:46.035Z,54.80
2019-06-08T14:31:14.423Z,53.20
2019-06-08T14:33:42.818Z,53.10
2019-06-08T14:36:11.227Z,55.40
2019-06-08T14:38:42.043Z,54.40
2019-06-08T14:41:10.011Z,52.20
2019-06-08T14:43:38.974Z,53.50
2019-06-08T14:46:08.118Z,53.00
2019-06-08T14:48:38.019Z,56.70
2019-06-08T14:51:08.584Z,53.70
2019-06-08T14:53:38.640Z,52.40
2019-06-08T14:56:08.942Z,57.60
2019-06-08T14:58:38.582Z,58.30
2019-06-08T15:01:07.878Z,54.10
2019-06-08T15:03:37.898Z,54.90
2019-06-08T15:06:08.311Z,53.40
2019-06-08T15:08:36.075Z,53.80
2019-06-08T15:11:04.741Z,52.80
2019-06-08T15:13:33.142Z,53.50
2019-06-08T15:16:01.865Z,56.40
2019-06-08T15:18:31.883Z,53.50
2019-06-08T15:21:00.402Z,53.70
2019-06-08T15:23:31.116Z,52.00
2019-06-08T15:25:58.923Z,56.50
2019-06-08T15:28:30.274Z,51.50
2019-06-08T15:30:59.812Z,54.00
2019-06-08T15:33:32.021Z,56.60
2019-06-08T15:35:57.606Z,54.10
2019-06-08T15:38:30.144Z,51.90
2019-06-08T15:40:57.865Z,56.60
2019-06-08T15:43:29.176Z,52.40
2019-06-08T15:45:58.983Z,53.60
2019-06-08T15:48:29.020Z,52.60
2019-06-08T15:50:58.375Z,56.70
2019-06-08T15:53:29.076Z,53.50
2019-06-08T15:55:58.358Z,54.10
2019-06-08T15:58:29.520Z,54.60
2019-06-08T16:00:57.088Z,55.80
2019-06-08T16:03:25.488Z,55.80
2019-06-08T16:05:53.877Z,53.90
2019-06-08T16:08:23.640Z,54.10
2019-06-08T16:10:52.180Z,56.50
2019-06-08T16:13:20.597Z,55.20
2019-06-08T16:15:48.977Z,55.40
2019-06-08T16:18:17.368Z,56.30
2019-06-08T16:20:45.764Z,56.50
2019-06-08T16:23:14.170Z,54.00
2019-06-08T16:25:42.568Z,53.50
2019-06-08T16:28:10.961Z,55.50
2019-06-08T16:30:39.512Z,54.60
2019-06-08T16:33:08.010Z,54.00
2019-06-08T16:35:36.389Z,55.80
2019-06-08T16:38:04.775Z,54.60
2019-06-08T16:40:34.319Z,54.60
2019-06-08T16:43:02.870Z,55.80
2019-06-08T16:45:31.254Z,54.90
2019-06-08T16:47:59.670Z,55.90
2019-06-08T16:50:28.113Z,55.60
2019-06-08T16:52:56.545Z,56.70
2019-06-08T16:55:24.941Z,54.70
2019-06-08T16:57:53.990Z,55.40
2019-06-08T17:00:31.460Z,57.00
2019-06-08T17:02:52.639Z,56.80
2019-06-08T17:05:21.038Z,58.10
2019-06-08T17:07:49.430Z,56.30
2019-06-08T17:10:18.282Z,57.10
2019-06-08T17:12:46.684Z,56.90
2019-06-08T17:15:15.348Z,57.00
2019-06-08T17:17:43.762Z,58.10
2019-06-08T17:20:12.734Z,57.40
2019-06-08T17:22:41.112Z,57.70
2019-06-08T17:25:09.604Z,57.90
2019-06-08T17:27:39.265Z,58.80
2019-06-08T17:30:08.958Z,57.90
2019-06-08T17:32:38.432Z,59.20
2019-06-08T17:35:08.296Z,58.00
2019-06-08T17:37:38.062Z,59.00
2019-06-08T17:40:06.751Z,59.30
2019-06-08T17:42:35.433Z,59.10
2019-06-08T17:45:06.374Z,58.80
2019-06-08T17:47:34.842Z,59.70
2019-06-08T17:50:04.977Z,61.10
2019-06-08T17:52:34.595Z,60.60
2019-06-08T17:55:04.597Z,59.30
2019-06-08T17:57:42.325Z,60.20
2019-06-08T18:00:03.972Z,60.70
2019-06-08T18:02:33.441Z,61.70
2019-06-08T18:05:01.964Z,61.10
2019-06-08T18:07:30.345Z,61.00
2019-06-08T18:09:58.747Z,60.80
2019-06-08T18:12:27.204Z,61.10
2019-06-08T18:14:57.898Z,61.60
2019-06-08T18:17:27.747Z,61.90
2019-06-08T18:19:57.982Z,62.00
2019-06-08T18:22:27.132Z,62.40
2019-06-08T18:24:58.102Z,63.00
2019-06-08T18:27:27.726Z,63.60
2019-06-08T18:29:58.088Z,64.20
2019-06-08T18:32:27.211Z,64.90
2019-06-08T18:34:57.258Z,65.00
2019-06-08T18:37:28.314Z,65.90
2019-06-08T18:39:57.849Z,65.20
2019-06-08T18:42:26.992Z,65.80
2019-06-08T18:44:55.473Z,66.70
2019-06-08T18:47:24.129Z,67.00
2019-06-08T18:49:52.537Z,66.40
2019-06-08T18:52:20.993Z,66.60
2019-06-08T18:54:49.846Z,67.10
2019-06-08T18:57:18.352Z,67.00
2019-06-08T18:59:51.048Z,67.90
2019-06-08T19:02:17.995Z,68.30
2019-06-08T19:04:47.769Z,68.50
2019-06-08T19:07:17.558Z,68.90
2019-06-08T19:09:48.041Z,68.50
2019-06-08T19:12:16.899Z,69.10
2019-06-08T19:14:47.505Z,69.10
2019-06-08T19:17:17.478Z,68.80
2019-06-08T19:19:51.611Z,70.30
2019-06-08T19:22:18.990Z,70.50
2019-06-08T19:24:50.448Z,69.80
2019-06-08T19:27:18.367Z,70.90
2019-06-08T19:29:49.966Z,71.40
2019-06-08T19:32:17.142Z,71.30
2019-06-08T19:34:52.343Z,72.70
2019-06-08T19:37:17.238Z,73.10
2019-06-08T19:39:47.691Z,72.50
2019-06-08T19:42:17.569Z,73.40
2019-06-08T19:44:57.795Z,73.60
2019-06-08T19:47:17.661Z,74.40
2019-06-08T19:49:48.030Z,75.20
2019-06-08T19:52:18.345Z,75.70
2019-06-08T19:54:52.099Z,75.60
2019-06-08T19:57:17.599Z,75.50
2019-06-08T19:59:46.036Z,75.90
2019-06-08T20:02:14.416Z,77.00
2019-06-08T20:04:42.840Z,76.50
2019-06-08T20:07:11.268Z,76.30
2019-06-08T20:09:41.000Z,76.30
2019-06-08T20:12:09.636Z,76.60
2019-06-08T20:14:38.086Z,78.30
2019-06-08T20:17:08.113Z,77.30
2019-06-08T20:19:37.382Z,77.20
2019-06-08T20:22:07.499Z,77.20
2019-06-08T20:24:37.801Z,78.70
2019-06-08T20:27:07.616Z,80.50
2019-06-08T20:29:38.110Z,81.10
2019-06-08T20:32:08.511Z,80.80
2019-06-08T20:34:38.083Z,81.20
2019-06-08T20:37:08.149Z,81.80
2019-06-08T20:39:38.253Z,81.20
2019-06-08T20:42:11.751Z,80.90
2019-06-08T20:44:38.573Z,82.20
2019-06-08T20:47:08.512Z,81.10
2019-06-08T20:49:37.334Z,81.00
2019-06-08T20:52:08.368Z,82.30
2019-06-08T20:54:36.793Z,82.50
2019-06-08T20:57:07.632Z,83.40
2019-06-08T20:59:39.494Z,85.00
2019-06-08T21:02:08.349Z,84.90
2019-06-08T21:04:38.276Z,85.20
2019-06-08T21:07:08.188Z,83.30
2019-06-08T21:09:37.080Z,87.00
2019-06-08T21:12:05.680Z,84.60
2019-06-08T21:14:34.079Z,83.20
2019-06-08T21:17:02.721Z,84.80
2019-06-08T21:19:31.113Z,86.00
2019-06-08T21:21:59.607Z,83.30
2019-06-08T21:24:28.261Z,85.20
2019-06-08T21:27:00.416Z,86.90
2019-06-08T21:29:44.253Z,87.50
2019-06-08T21:32:01.842Z,87.70
2019-06-08T21:34:27.538Z,90.00
2019-06-08T21:37:00.274Z,87.80
2019-06-08T21:39:28.275Z,90.80
2019-06-08T21:42:01.034Z,90.30
2019-06-08T21:44:27.868Z,90.50
2019-06-08T21:47:00.817Z,91.30
2019-06-08T21:49:27.702Z,90.10
2019-06-08T21:51:59.621Z,89.70
2019-06-08T21:54:27.189Z,90.20
2019-06-08T21:56:58.883Z,90.80
2019-06-08T21:59:25.805Z,92.00
2019-06-08T22:01:55.171Z,92.00
2019-06-08T22:04:24.393Z,91.10
2019-06-08T22:06:54.011Z,91.00
2019-06-08T22:09:24.204Z,92.40
2019-06-08T22:11:54.384Z,93.60
2019-06-08T22:14:22.953Z,93.20
2019-06-08T22:16:52.510Z,93.80
2019-06-08T22:19:21.517Z,92.50
2019-06-08T22:21:52.043Z,92.00
2019-06-08T22:24:20.094Z,93.30
2019-06-08T22:26:48.909Z,92.90
2019-06-08T22:29:18.265Z,94.60
2019-06-08T22:31:47.896Z,94.50
2019-06-08T22:34:17.456Z,93.60
2019-06-08T22:36:47.785Z,94.20
2019-06-08T22:39:17.577Z,94.80
2019-06-08T22:41:47.787Z,93.90
2019-06-08T22:44:17.715Z,96.40
2019-06-08T22:46:47.902Z,93.80
2019-06-08T22:49:18.603Z,96.80
2019-06-08T22:51:47.700Z,95.70
2019-06-08T22:54:17.047Z,95.80
2019-06-08T22:56:47.666Z,95.30
2019-06-08T22:59:17.505Z,94.60
2019-06-08T23:01:47.547Z,96.70
2019-06-08T23:04:18.248Z,95.30
2019-06-08T23:06:47.632Z,97.10
2019-06-08T23:09:17.942Z,96.10
2019-06-08T23:11:47.117Z,95.20
2019-06-08T23:14:17.913Z,97.40
2019-06-08T23:16:47.202Z,98.00
2019-06-08T23:19:17.390Z,98.10
2019-06-08T23:21:47.534Z,98.60
2019-06-08T23:24:18.042Z,98.80
2019-06-08T23:26:48.013Z,99.90
2019-06-08T23:29:17.882Z,97.40
2019-06-08T23:31:47.914Z,97.80
2019-06-08T23:34:18.326Z,98.20
2019-06-08T23:36:55.362Z,99.30
2019-06-08T23:39:18.000Z,99.90
2019-06-08T23:41:48.289Z,99.90
2019-06-08T23:44:17.669Z,98.60
2019-06-08T23:46:47.620Z,99.90
2019-06-08T23:49:18.676Z,99.90
2019-06-08T23:51:47.533Z,97.80
2019-06-08T23:54:18.209Z,99.90
2019-06-08T23:56:47.638Z,99.90
2019-06-08T23:59:17.831Z,99.90
